Terminal Aerodrome Forecast
Issued by NWS

Home | Current Version | Previous Version | Text Only | Print | Product List | Glossary On
Versions: 1 2 3 4 5 6 7 8 9 10 11 12 13 14 15
000
FTUS45 KVEF 301138
TAFEED
TAF
KEED 301138Z 3012/0112 24008KT P6SM FEW120 SCT150 BKN220
     FM302000 19006KT P6SM SCT130
     FM010300 25010KT P6SM SCT130 BKN220=

USA.gov is the U.S. government's official web portal to all federal, state and local government web resources and services.